createdAt,value
2022-08-27T00:00:53.238Z,18.55
2022-08-27T00:03:23.059Z,18.55
2022-08-27T00:05:52.929Z,18.55
2022-08-27T00:08:25.494Z,18.54
2022-08-27T00:10:55.291Z,18.54
2022-08-27T00:13:25.064Z,18.53
2022-08-27T00:15:54.835Z,18.53
2022-08-27T00:18:24.631Z,18.51
2022-08-27T00:20:54.387Z,18.47
2022-08-27T00:23:26.942Z,18.45
2022-08-27T00:25:56.824Z,18.43
2022-08-27T00:28:29.125Z,18.41
2022-08-27T00:30:59.820Z,18.41
2022-08-27T00:33:31.736Z,18.41
2022-08-27T00:36:01.599Z,18.39
2022-08-27T00:38:34.418Z,18.39
2022-08-27T00:41:04.185Z,18.38
2022-08-27T00:43:48.681Z,18.36
2022-08-27T00:46:24.685Z,18.37
2022-08-27T00:48:56.957Z,18.37
2022-08-27T00:51:28.132Z,18.38
2022-08-27T00:54:02.717Z,18.38
2022-08-27T00:56:37.624Z,18.37
2022-08-27T00:59:08.079Z,18.36
2022-08-27T01:01:58.371Z,18.33
2022-08-27T01:04:28.187Z,18.34
2022-08-27T01:06:58.470Z,18.35
2022-08-27T01:09:31.510Z,18.36
2022-08-27T01:12:01.938Z,18.35
2022-08-27T01:14:32.157Z,18.38
2022-08-27T01:17:05.434Z,18.39
2022-08-27T01:19:41.935Z,18.41
2022-08-27T01:22:20.416Z,18.41
2022-08-27T01:24:58.699Z,18.42
2022-08-27T01:27:31.527Z,18.41
2022-08-27T01:30:01.752Z,18.42
2022-08-27T01:32:36.624Z,18.41
2022-08-27T01:35:09.755Z,18.42
2022-08-27T01:37:40.821Z,18.41
2022-08-27T01:40:14.286Z,18.42
2022-08-27T01:42:49.534Z,18.42
2022-08-27T01:45:25.795Z,18.44
2022-08-27T01:47:55.983Z,18.45
2022-08-27T01:50:29.524Z,18.46
2022-08-27T01:52:59.639Z,18.49
2022-08-27T01:55:32.032Z,18.49
2022-08-27T01:58:01.817Z,18.49
2022-08-27T02:00:34.956Z,18.50
2022-08-27T02:03:06.086Z,18.48
2022-08-27T02:05:44.745Z,18.47
2022-08-27T02:08:16.087Z,18.48
2022-08-27T02:10:50.379Z,18.48
2022-08-27T02:13:21.187Z,18.48
2022-08-27T02:15:51.082Z,18.46
2022-08-27T02:18:21.186Z,18.48
2022-08-27T02:20:51.729Z,18.48
2022-08-27T02:23:21.995Z,18.47
2022-08-27T02:25:54.369Z,18.47
2022-08-27T02:28:24.166Z,18.48
2022-08-27T02:30:53.903Z,18.45
2022-08-27T02:33:23.660Z,18.42
2022-08-27T02:35:53.420Z,18.43
2022-08-27T02:38:25.774Z,18.43
2022-08-27T02:40:59.056Z,18.41
2022-08-27T02:43:28.843Z,18.37
2022-08-27T02:45:58.583Z,18.34
2022-08-27T02:48:28.423Z,18.32
2022-08-27T02:50:58.245Z,18.30
2022-08-27T02:53:28.684Z,18.28
2022-08-27T02:56:01.483Z,18.28
2022-08-27T02:58:31.283Z,18.27
2022-08-27T03:01:01.358Z,18.26
2022-08-27T03:03:31.747Z,18.27
2022-08-27T03:06:01.951Z,18.26
2022-08-27T03:08:32.539Z,18.23
2022-08-27T03:11:25.808Z,18.24
2022-08-27T03:13:56.175Z,18.25
2022-08-27T03:16:26.080Z,18.27
2022-08-27T03:18:53.412Z,18.27
2022-08-27T03:21:26.556Z,18.26
2022-08-27T03:23:57.128Z,18.26
2022-08-27T03:26:30.628Z,18.23
2022-08-27T03:29:01.381Z,18.21
2022-08-27T03:31:31.467Z,18.19
2022-08-27T03:34:03.951Z,18.16
2022-08-27T03:36:34.413Z,18.10
2022-08-27T03:39:04.231Z,18.07
2022-08-27T03:41:43.859Z,18.02
2022-08-27T03:44:25.089Z,18.01
2022-08-27T03:46:55.465Z,18.00
2022-08-27T03:49:26.183Z,18.01
2022-08-27T03:51:56.506Z,18.00
2022-08-27T03:54:26.351Z,18.01
2022-08-27T03:56:58.715Z,18.03
2022-08-27T03:59:28.470Z,18.03
2022-08-27T04:01:58.314Z,18.05
2022-08-27T04:04:28.674Z,18.05
2022-08-27T04:06:59.066Z,18.05
2022-08-27T04:09:29.299Z,18.07
2022-08-27T04:12:01.756Z,18.09
2022-08-27T04:14:31.543Z,18.11
2022-08-27T04:17:01.392Z,18.11
2022-08-27T04:19:33.332Z,18.14
2022-08-27T04:22:04.632Z,18.14
2022-08-27T04:24:36.302Z,18.15
2022-08-27T04:27:09.336Z,18.15
2022-08-27T04:29:39.090Z,18.15
2022-08-27T04:32:10.122Z,18.17
2022-08-27T04:34:39.961Z,18.20
2022-08-27T04:37:10.074Z,18.21
2022-08-27T04:39:39.868Z,18.22
2022-08-27T04:42:12.333Z,18.19
2022-08-27T04:44:42.140Z,18.16
2022-08-27T04:47:11.893Z,18.13
2022-08-27T04:49:42.117Z,18.09
2022-08-27T04:52:12.143Z,18.07
2022-08-27T04:54:42.254Z,18.05
2022-08-27T04:57:14.648Z,18.06
2022-08-27T04:59:44.441Z,18.05
2022-08-27T05:02:14.640Z,18.01
2022-08-27T05:04:46.223Z,18.01
2022-08-27T05:07:16.056Z,18.03
2022-08-27T05:09:45.817Z,18.07
2022-08-27T05:12:18.166Z,18.16
2022-08-27T05:14:47.951Z,18.22
2022-08-27T05:17:17.709Z,18.23
2022-08-27T05:19:47.464Z,18.22
2022-08-27T05:22:17.252Z,18.20
2022-08-27T05:24:50.221Z,18.19
2022-08-27T05:27:22.824Z,18.16
2022-08-27T05:29:52.564Z,18.17
2022-08-27T05:32:22.295Z,18.17
2022-08-27T05:34:52.049Z,18.19
2022-08-27T05:37:22.135Z,18.20
2022-08-27T05:39:51.988Z,18.23
2022-08-27T05:42:24.409Z,18.25
2022-08-27T05:44:54.401Z,18.28
2022-08-27T05:47:24.278Z,18.31
2022-08-27T05:49:54.995Z,18.35
2022-08-27T05:52:24.825Z,18.38
2022-08-27T05:54:55.190Z,18.44
2022-08-27T05:57:27.535Z,18.48
2022-08-27T06:00:09.735Z,18.53
2022-08-27T06:02:46.268Z,18.57
2022-08-27T06:05:16.093Z,18.60
2022-08-27T06:07:45.885Z,18.64
2022-08-27T06:10:16.342Z,18.68
2022-08-27T06:12:48.905Z,18.70
2022-08-27T06:15:18.711Z,18.72
2022-08-27T06:17:48.502Z,18.74
2022-08-27T06:20:20.792Z,18.77
2022-08-27T06:22:50.563Z,18.80
2022-08-27T06:25:20.481Z,18.79
2022-08-27T06:27:52.983Z,18.82
2022-08-27T06:30:22.788Z,18.85
2022-08-27T06:32:52.683Z,18.87
2022-08-27T06:35:22.574Z,18.87
2022-08-27T06:37:53.410Z,18.87
2022-08-27T06:40:23.424Z,18.87
2022-08-27T06:42:55.958Z,18.88
2022-08-27T06:45:25.762Z,18.90
2022-08-27T06:47:56.063Z,18.93
2022-08-27T06:50:27.493Z,18.99
2022-08-27T06:52:57.342Z,19.01
2022-08-27T06:55:27.120Z,19.03
2022-08-27T06:57:59.506Z,19.07
2022-08-27T07:00:29.311Z,19.11
2022-08-27T07:02:59.154Z,19.16
2022-08-27T07:05:29.619Z,19.20
2022-08-27T07:07:59.400Z,19.17
2022-08-27T07:10:30.191Z,19.18
2022-08-27T07:13:03.083Z,19.25
2022-08-27T07:15:33.093Z,19.37
2022-08-27T07:18:05.003Z,19.60
2022-08-27T07:20:35.475Z,19.87
2022-08-27T07:23:09.379Z,20.13
2022-08-27T07:25:44.287Z,20.21
2022-08-27T07:28:16.667Z,20.26
2022-08-27T07:30:46.791Z,20.35
2022-08-27T07:33:16.653Z,20.42
2022-08-27T07:35:49.135Z,20.56
2022-08-27T07:38:20.020Z,20.73
2022-08-27T07:40:49.810Z,20.94
2022-08-27T07:43:34.728Z,21.11
2022-08-27T07:46:05.684Z,21.25
2022-08-27T07:48:36.480Z,21.30
2022-08-27T07:51:08.672Z,21.16
2022-08-27T07:53:38.519Z,21.01
2022-08-27T07:56:09.494Z,20.89
2022-08-27T07:58:42.818Z,20.76
2022-08-27T08:01:13.868Z,20.67
2022-08-27T08:03:44.516Z,20.67
2022-08-27T08:06:18.119Z,20.82
2022-08-27T08:08:48.175Z,21.00
2022-08-27T08:11:20.678Z,21.11
2022-08-27T08:13:53.161Z,21.12
2022-08-27T08:16:23.112Z,21.02
2022-08-27T08:18:52.916Z,20.93
2022-08-27T08:21:22.994Z,20.81
2022-08-27T08:23:52.884Z,20.69
2022-08-27T08:26:23.267Z,20.63
2022-08-27T08:28:55.668Z,20.58
2022-08-27T08:31:27.534Z,20.59
2022-08-27T08:33:57.375Z,20.67
2022-08-27T08:36:27.151Z,20.83
2022-08-27T08:38:57.219Z,21.03
2022-08-27T08:41:41.647Z,21.25
2022-08-27T08:44:19.806Z,21.38
2022-08-27T08:46:55.982Z,21.38
2022-08-27T08:49:52.697Z,21.42
2022-08-27T08:52:32.279Z,21.52
2022-08-27T08:55:13.191Z,21.67
2022-08-27T08:57:51.695Z,21.73
2022-08-27T09:00:24.482Z,21.82
2022-08-27T09:02:57.503Z,21.93
2022-08-27T09:05:28.219Z,22.10
2022-08-27T09:08:29.208Z,22.19
2022-08-27T09:11:01.861Z,22.33
2022-08-27T09:13:35.939Z,22.38
2022-08-27T09:16:09.324Z,22.45
2022-08-27T09:18:42.541Z,22.35
2022-08-27T09:21:27.986Z,22.32
2022-08-27T09:24:07.031Z,22.29
2022-08-27T09:26:39.582Z,22.29
2022-08-27T09:29:22.086Z,22.29
2022-08-27T09:31:58.851Z,22.35
2022-08-27T09:34:30.479Z,22.39
2022-08-27T09:37:09.168Z,22.49
2022-08-27T09:39:47.311Z,22.56
2022-08-27T09:42:30.420Z,22.58
2022-08-27T09:45:00.950Z,22.56
2022-08-27T09:47:33.310Z,22.58
2022-08-27T09:50:10.750Z,22.62
2022-08-27T09:52:55.216Z,22.57
2022-08-27T09:55:46.880Z,22.57
2022-08-27T09:58:21.992Z,22.52
2022-08-27T10:01:01.175Z,22.40
2022-08-27T10:03:33.965Z,22.34
2022-08-27T10:06:03.794Z,22.32
2022-08-27T10:08:41.279Z,22.35
2022-08-27T10:11:17.573Z,22.40
2022-08-27T10:13:54.774Z,22.37
2022-08-27T10:16:44.634Z,22.35
2022-08-27T10:19:28.468Z,22.29
2022-08-27T10:22:07.830Z,22.20
2022-08-27T10:24:50.828Z,22.09
2022-08-27T10:27:30.397Z,22.06
2022-08-27T10:30:07.652Z,22.15
2022-08-27T10:33:03.993Z,22.26
2022-08-27T10:35:47.818Z,22.25
2022-08-27T10:38:26.439Z,22.20
2022-08-27T10:41:03.259Z,22.11
2022-08-27T10:44:01.375Z,22.14
2022-08-27T10:46:50.953Z,22.24
2022-08-27T10:49:29.574Z,22.24
2022-08-27T10:52:16.984Z,22.20
2022-08-27T10:54:52.450Z,22.14
2022-08-27T10:57:51.738Z,22.09
2022-08-27T11:00:22.633Z,22.07
2022-08-27T11:02:57.293Z,22.13
2022-08-27T11:05:31.978Z,22.10
2022-08-27T11:08:12.849Z,22.12
2022-08-27T11:10:48.749Z,22.09
2022-08-27T11:13:24.290Z,21.99
2022-08-27T11:15:57.724Z,21.95
2022-08-27T11:18:43.202Z,21.93
2022-08-27T11:21:17.482Z,21.94
2022-08-27T11:23:55.424Z,21.96
2022-08-27T11:26:25.212Z,21.91
2022-08-27T11:28:58.365Z,21.83
2022-08-27T11:31:35.917Z,21.80
2022-08-27T11:34:13.139Z,21.79
2022-08-27T11:37:02.882Z,21.76
2022-08-27T11:39:51.979Z,21.77
2022-08-27T11:42:36.390Z,21.71
2022-08-27T11:45:11.323Z,21.61
2022-08-27T11:47:41.249Z,21.57
2022-08-27T11:50:21.116Z,21.61
2022-08-27T11:53:00.983Z,21.64
2022-08-27T11:55:37.090Z,21.69
2022-08-27T11:58:14.100Z,21.68
2022-08-27T12:00:45.874Z,21.66
2022-08-27T12:03:28.935Z,21.73
2022-08-27T12:06:20.703Z,21.82
2022-08-27T12:08:50.550Z,21.94
2022-08-27T12:11:45.009Z,22.01
2022-08-27T12:14:32.503Z,22.02
2022-08-27T12:17:10.121Z,21.98
2022-08-27T12:19:52.271Z,21.98
2022-08-27T12:22:59.560Z,21.94
2022-08-27T12:25:30.450Z,21.92
2022-08-27T12:28:06.138Z,21.93
2022-08-27T12:30:38.405Z,21.91
2022-08-27T12:33:15.581Z,21.90
2022-08-27T12:35:50.180Z,21.90
2022-08-27T12:38:23.076Z,21.92
2022-08-27T12:40:57.867Z,21.90
2022-08-27T12:43:33.585Z,21.87
2022-08-27T12:46:06.060Z,21.79
2022-08-27T12:48:39.764Z,21.71
2022-08-27T12:51:16.095Z,21.74
2022-08-27T12:53:48.007Z,21.71
2022-08-27T12:56:54.283Z,21.67
2022-08-27T12:59:46.404Z,21.64
2022-08-27T13:02:31.376Z,21.66
2022-08-27T13:05:10.108Z,21.75
2022-08-27T13:07:44.402Z,21.85
2022-08-27T13:10:17.438Z,21.90
2022-08-27T13:12:48.727Z,22.00
2022-08-27T13:15:22.639Z,22.07
2022-08-27T13:17:52.883Z,22.15
2022-08-27T13:20:26.830Z,22.19
2022-08-27T13:22:57.382Z,22.21
2022-08-27T13:25:31.029Z,22.25
2022-08-27T13:28:08.253Z,22.27
2022-08-27T13:30:45.228Z,22.21
2022-08-27T13:33:19.350Z,22.10
2022-08-27T13:35:49.217Z,22.09
2022-08-27T13:38:20.559Z,22.11
2022-08-27T13:41:01.170Z,22.17
2022-08-27T13:43:38.636Z,22.10
2022-08-27T13:46:16.403Z,22.01
2022-08-27T13:48:48.461Z,21.96
2022-08-27T13:51:18.816Z,21.98
2022-08-27T13:54:04.624Z,22.01
2022-08-27T13:56:37.407Z,21.95
2022-08-27T13:59:15.072Z,21.89
2022-08-27T14:01:58.737Z,21.74
2022-08-27T14:04:30.626Z,21.64
2022-08-27T14:07:00.405Z,21.54
2022-08-27T14:09:32.259Z,21.45
2022-08-27T14:12:03.990Z,21.37
2022-08-27T14:14:39.058Z,21.35
2022-08-27T14:17:29.083Z,21.36
2022-08-27T14:20:04.423Z,21.34
2022-08-27T14:22:35.761Z,21.29
2022-08-27T14:25:05.725Z,21.28
2022-08-27T14:27:38.186Z,21.29
2022-08-27T14:30:10.858Z,21.25
2022-08-27T14:32:44.270Z,21.25
2022-08-27T14:35:15.198Z,21.27
2022-08-27T14:37:55.926Z,21.25
2022-08-27T14:40:25.854Z,21.25
2022-08-27T14:42:56.289Z,21.26
2022-08-27T14:45:26.155Z,21.24
2022-08-27T14:48:02.161Z,21.22
2022-08-27T14:50:32.439Z,21.21
2022-08-27T14:53:02.230Z,21.23
2022-08-27T14:55:32.030Z,21.23
2022-08-27T14:58:02.211Z,21.21
2022-08-27T15:00:32.222Z,21.20
2022-08-27T15:03:04.647Z,21.14
2022-08-27T15:05:34.457Z,21.11
2022-08-27T15:08:04.576Z,21.14
2022-08-27T15:10:34.934Z,21.22
2022-08-27T15:13:05.540Z,21.30
2022-08-27T15:15:35.347Z,21.30
2022-08-27T15:18:08.930Z,21.32
2022-08-27T15:20:39.183Z,21.31
2022-08-27T15:23:09.067Z,21.28
2022-08-27T15:25:38.815Z,21.28
2022-08-27T15:28:09.059Z,21.26
2022-08-27T15:30:38.823Z,21.20
2022-08-27T15:33:11.421Z,21.13
2022-08-27T15:35:41.260Z,21.15
2022-08-27T15:38:11.203Z,21.17
2022-08-27T15:40:41.273Z,21.12
2022-08-27T15:43:13.255Z,20.99
2022-08-27T15:45:43.151Z,20.97
2022-08-27T15:48:15.494Z,21.02
2022-08-27T15:50:45.991Z,21.01
2022-08-27T15:53:15.918Z,20.96
2022-08-27T15:55:47.705Z,20.87
2022-08-27T15:58:17.456Z,20.80
2022-08-27T16:00:48.696Z,20.74
2022-08-27T16:03:35.556Z,20.70
2022-08-27T16:06:06.525Z,20.63
2022-08-27T16:08:39.178Z,20.59
2022-08-27T16:11:12.963Z,20.58
2022-08-27T16:13:43.048Z,20.57
2022-08-27T16:16:13.912Z,20.52
2022-08-27T16:18:46.641Z,20.51
2022-08-27T16:21:16.343Z,20.49
2022-08-27T16:23:46.091Z,20.48
2022-08-27T16:26:16.640Z,20.49
2022-08-27T16:28:46.409Z,20.52
2022-08-27T16:31:16.665Z,20.52
2022-08-27T16:33:49.709Z,20.49
2022-08-27T16:36:19.616Z,20.46
2022-08-27T16:38:50.570Z,20.38
2022-08-27T16:41:21.519Z,20.32
2022-08-27T16:43:51.631Z,20.27
2022-08-27T16:46:21.466Z,20.26
2022-08-27T16:49:06.405Z,20.26
2022-08-27T16:51:38.197Z,20.17
2022-08-27T16:54:09.334Z,20.09
2022-08-27T16:56:40.248Z,20.04
2022-08-27T16:59:13.146Z,20.00
2022-08-27T17:01:43.822Z,19.95
2022-08-27T17:04:26.528Z,19.95
2022-08-27T17:07:00.116Z,19.99
2022-08-27T17:09:29.845Z,19.99
2022-08-27T17:12:05.353Z,19.96
2022-08-27T17:14:37.963Z,19.96
2022-08-27T17:17:09.578Z,19.93
2022-08-27T17:19:42.154Z,19.89
2022-08-27T17:22:12.149Z,19.88
2022-08-27T17:24:41.868Z,19.87
2022-08-27T17:27:11.984Z,19.92
2022-08-27T17:29:41.837Z,19.94
2022-08-27T17:32:12.283Z,19.96
2022-08-27T17:34:44.723Z,19.98
2022-08-27T17:37:14.583Z,19.97
2022-08-27T17:39:46.904Z,19.94
2022-08-27T17:42:16.807Z,19.95
2022-08-27T17:44:46.616Z,19.95
2022-08-27T17:47:16.367Z,19.88
2022-08-27T17:49:49.168Z,19.82
2022-08-27T17:52:19.024Z,19.77
2022-08-27T17:54:51.172Z,19.71
2022-08-27T17:57:23.691Z,19.69
2022-08-27T17:59:54.569Z,19.65
2022-08-27T18:02:27.808Z,19.63
2022-08-27T18:05:00.215Z,19.61
2022-08-27T18:07:30.675Z,19.57
2022-08-27T18:10:00.523Z,19.51
2022-08-27T18:12:30.807Z,19.44
2022-08-27T18:15:06.316Z,19.37
2022-08-27T18:17:36.279Z,19.30
2022-08-27T18:20:12.892Z,19.26
2022-08-27T18:22:48.198Z,19.22
2022-08-27T18:25:20.030Z,19.18
2022-08-27T18:27:52.773Z,19.18
2022-08-27T18:30:23.096Z,19.16
2022-08-27T18:32:52.923Z,19.18
2022-08-27T18:35:28.661Z,19.18
2022-08-27T18:37:59.199Z,19.13
2022-08-27T18:40:33.239Z,19.06
2022-08-27T18:43:03.021Z,19.05
2022-08-27T18:45:34.874Z,19.05
2022-08-27T18:48:06.172Z,19.03
2022-08-27T18:50:38.655Z,19.03
2022-08-27T18:53:08.491Z,19.00
2022-08-27T18:55:38.196Z,19.01
2022-08-27T18:58:07.971Z,18.98
2022-08-27T19:00:38.089Z,18.96
2022-08-27T19:03:08.067Z,18.94
2022-08-27T19:05:40.593Z,18.95
2022-08-27T19:08:13.160Z,18.94
2022-08-27T19:10:43.058Z,18.90
2022-08-27T19:13:12.773Z,18.88
2022-08-27T19:15:46.210Z,18.87
2022-08-27T19:18:15.961Z,18.86
2022-08-27T19:20:48.339Z,18.88
2022-08-27T19:23:22.197Z,18.87
2022-08-27T19:25:52.764Z,18.85
2022-08-27T19:28:27.777Z,18.84
2022-08-27T19:30:57.692Z,18.84
2022-08-27T19:33:27.450Z,18.85
2022-08-27T19:36:00.497Z,18.85
2022-08-27T19:38:34.228Z,18.85
2022-08-27T19:41:05.060Z,18.84
2022-08-27T19:43:35.231Z,18.83
2022-08-27T19:46:07.606Z,18.80
2022-08-27T19:48:37.447Z,18.76
2022-08-27T19:51:10.171Z,18.74
2022-08-27T19:53:39.978Z,18.70
2022-08-27T19:56:10.833Z,18.65
2022-08-27T19:58:40.551Z,18.62
2022-08-27T20:01:11.613Z,18.58
2022-08-27T20:03:41.814Z,18.52
2022-08-27T20:06:14.678Z,18.51
2022-08-27T20:08:44.603Z,18.52
2022-08-27T20:11:17.987Z,18.49
2022-08-27T20:13:52.120Z,18.49
2022-08-27T20:16:21.916Z,18.51
2022-08-27T20:18:51.728Z,18.49
2022-08-27T20:21:24.097Z,18.50
2022-08-27T20:23:54.000Z,18.51
2022-08-27T20:26:24.856Z,18.51
2022-08-27T20:28:55.335Z,18.51
2022-08-27T20:31:25.143Z,18.49
2022-08-27T20:33:55.492Z,18.46
2022-08-27T20:36:31.736Z,18.45
2022-08-27T20:39:02.313Z,18.43
2022-08-27T20:41:32.128Z,18.43
2022-08-27T20:44:02.274Z,18.44
2022-08-27T20:46:34.581Z,18.49
2022-08-27T20:49:04.660Z,18.53
2022-08-27T20:52:02.196Z,18.55
2022-08-27T20:54:27.486Z,18.53
2022-08-27T20:56:57.194Z,18.49
2022-08-27T20:59:39.349Z,18.46
2022-08-27T21:02:11.542Z,18.39
2022-08-27T21:04:42.693Z,18.35
2022-08-27T21:07:15.324Z,18.33
2022-08-27T21:09:56.838Z,18.29
2022-08-27T21:12:27.899Z,18.24
2022-08-27T21:14:58.227Z,18.25
2022-08-27T21:17:29.240Z,18.24
2022-08-27T21:19:59.224Z,18.25
2022-08-27T21:22:31.596Z,18.24
2022-08-27T21:25:01.336Z,18.25
2022-08-27T21:27:31.123Z,18.23
2022-08-27T21:30:01.316Z,18.20
2022-08-27T21:32:31.096Z,18.21
2022-08-27T21:35:00.823Z,18.23
2022-08-27T21:37:33.232Z,18.23
2022-08-27T21:40:03.146Z,18.22
2022-08-27T21:42:32.994Z,18.19
2022-08-27T21:45:02.753Z,18.19
2022-08-27T21:47:32.549Z,18.20
2022-08-27T21:50:02.305Z,18.21
2022-08-27T21:52:34.895Z,18.23
2022-08-27T21:55:04.837Z,18.23
2022-08-27T21:57:34.631Z,18.22
2022-08-27T22:00:12.502Z,18.19
2022-08-27T22:02:42.232Z,18.17
2022-08-27T22:05:12.800Z,18.16
2022-08-27T22:07:45.112Z,18.14
2022-08-27T22:10:15.188Z,18.13
2022-08-27T22:12:44.893Z,18.12
2022-08-27T22:15:14.760Z,18.11
2022-08-27T22:17:48.302Z,18.13
2022-08-27T22:20:21.233Z,18.15
2022-08-27T22:22:54.011Z,18.16
2022-08-27T22:25:23.806Z,18.17
2022-08-27T22:27:53.571Z,18.21
2022-08-27T22:30:23.925Z,18.20
2022-08-27T22:32:54.476Z,18.14
2022-08-27T22:35:24.816Z,18.09
2022-08-27T22:37:59.991Z,18.05
2022-08-27T22:40:32.146Z,18.02
2022-08-27T22:43:02.391Z,17.99
2022-08-27T22:45:32.325Z,17.98
2022-08-27T22:48:02.037Z,18.01
2022-08-27T22:50:31.749Z,18.04
2022-08-27T22:53:04.338Z,18.05
2022-08-27T22:55:34.164Z,18.08
2022-08-27T22:58:04.200Z,18.11
2022-08-27T23:00:36.867Z,18.13
2022-08-27T23:03:10.282Z,18.10
2022-08-27T23:05:41.973Z,18.07
2022-08-27T23:08:15.260Z,18.01
2022-08-27T23:10:46.930Z,17.98
2022-08-27T23:13:16.707Z,17.95
2022-08-27T23:15:46.548Z,17.96
2022-08-27T23:18:16.733Z,17.96
2022-08-27T23:20:46.450Z,17.95
2022-08-27T23:23:19.991Z,17.99
2022-08-27T23:26:02.417Z,17.96
2022-08-27T23:28:32.324Z,17.94
2022-08-27T23:31:02.504Z,17.93
2022-08-27T23:33:32.290Z,17.90
2022-08-27T23:36:02.008Z,17.88
2022-08-27T23:38:34.705Z,17.88
2022-08-27T23:41:05.852Z,17.88
2022-08-27T23:43:35.722Z,17.88
2022-08-27T23:46:05.472Z,17.87
2022-08-27T23:48:35.271Z,17.86
2022-08-27T23:51:05.515Z,17.87
2022-08-27T23:53:38.434Z,17.90
2022-08-27T23:56:09.360Z,17.88
2022-08-27T23:58:39.178Z,17.89
